createdAt,value
2023-02-19T00:03:08.791Z,3600
2023-02-19T00:13:08.774Z,3602
2023-02-19T00:23:08.744Z,3605
2023-02-19T00:33:09.141Z,3597
2023-02-19T00:43:08.744Z,3600
2023-02-19T00:53:08.734Z,3597
2023-02-19T01:03:08.717Z,3600
2023-02-19T01:13:09.109Z,3597
2023-02-19T01:23:08.692Z,3602
2023-02-19T01:33:08.661Z,3602
2023-02-19T01:43:08.662Z,3605
2023-02-19T01:53:08.641Z,3605
2023-02-19T02:03:08.644Z,3605
2023-02-19T02:13:08.639Z,3605
2023-02-19T02:23:08.631Z,3607
2023-02-19T02:33:08.603Z,3605
2023-02-19T02:43:08.604Z,3600
2023-02-19T02:53:08.595Z,3602
2023-02-19T03:03:09.005Z,3597
2023-02-19T03:13:08.984Z,3592
2023-02-19T03:23:08.584Z,3594
2023-02-19T03:33:08.585Z,3600
2023-02-19T03:43:08.553Z,3600
2023-02-19T03:53:08.529Z,3605
2023-02-19T04:03:08.550Z,3605
2023-02-19T04:13:08.521Z,3605
2023-02-19T04:23:08.526Z,3605
2023-02-19T04:33:08.497Z,3605
2023-02-19T04:43:08.498Z,3605
2023-02-19T04:53:08.497Z,3605
2023-02-19T05:03:08.493Z,3605
2023-02-19T05:13:08.483Z,3605
2023-02-19T05:23:08.467Z,3605
2023-02-19T05:33:08.472Z,3605
2023-02-19T05:43:08.448Z,3605
2023-02-19T05:53:08.438Z,3605
2023-02-19T06:03:08.442Z,3605
2023-02-19T06:13:08.428Z,3605
2023-02-19T06:23:08.430Z,3605
2023-02-19T06:33:08.854Z,3597
2023-02-19T06:43:08.432Z,3597
2023-02-19T06:53:08.843Z,3594
2023-02-19T07:03:08.378Z,3594
2023-02-19T07:13:08.391Z,3600
2023-02-19T07:23:08.384Z,3600
2023-02-19T07:33:10.465Z,3600
2023-02-19T07:43:08.359Z,3605
2023-02-19T07:53:08.329Z,3605
2023-02-19T08:03:08.348Z,3607
2023-02-19T08:13:08.312Z,3607
2023-02-19T08:23:08.298Z,3607
2023-02-19T08:33:08.303Z,3610
2023-02-19T08:43:08.300Z,3613
2023-02-19T08:53:08.244Z,3610
2023-02-19T09:03:08.254Z,3613
2023-02-19T09:13:08.209Z,3613
2023-02-19T09:23:10.125Z,3594
2023-02-19T09:33:08.638Z,3597
2023-02-19T09:43:08.177Z,3602
2023-02-19T09:53:08.166Z,3600
2023-02-19T10:03:08.164Z,3605
2023-02-19T10:13:08.134Z,3607
2023-02-19T10:23:08.157Z,3610
2023-02-19T10:33:08.553Z,3607
2023-02-19T10:43:08.106Z,3610
2023-02-19T10:53:08.114Z,3610
2023-02-19T11:03:08.068Z,3610
2023-02-19T11:13:08.047Z,3613
2023-02-19T11:23:08.013Z,3615
2023-02-19T11:33:08.004Z,3615
2023-02-19T11:43:08.005Z,3615
2023-02-19T11:53:08.397Z,3613
2023-02-19T12:03:07.970Z,3613
2023-02-19T12:13:07.943Z,3615
2023-02-19T12:23:07.913Z,3613
2023-02-19T12:33:07.913Z,3610
2023-02-19T12:43:07.892Z,3610
2023-02-19T12:53:07.896Z,3615
2023-02-19T13:03:08.304Z,3610
2023-02-19T13:13:07.824Z,3610
2023-02-19T13:23:07.825Z,3610
2023-02-19T13:33:07.832Z,3613
2023-02-19T13:43:07.826Z,3613
2023-02-19T13:53:07.769Z,3613
2023-02-19T14:03:07.771Z,3613
2023-02-19T14:13:07.760Z,3613
2023-02-19T14:23:07.738Z,3610
2023-02-19T14:33:10.949Z,3613
2023-02-19T14:43:07.702Z,3613
2023-02-19T14:53:07.692Z,3613
2023-02-19T15:03:07.684Z,3610
2023-02-19T15:13:07.664Z,3610
2023-02-19T15:23:07.650Z,3610
2023-02-19T15:33:07.638Z,3613
2023-02-19T15:43:08.061Z,3605
2023-02-19T15:53:07.632Z,3607
2023-02-19T16:03:07.644Z,3610
2023-02-19T16:13:07.583Z,3610
2023-02-19T16:23:07.581Z,3610
2023-02-19T16:33:07.971Z,3605
2023-02-19T16:43:07.563Z,3607
2023-02-19T16:53:07.544Z,3610
2023-02-19T17:03:07.517Z,3607
2023-02-19T17:13:07.500Z,3610
2023-02-19T17:23:07.479Z,3610
2023-02-19T17:33:07.473Z,3610
2023-02-19T17:43:07.455Z,3607
2023-02-19T17:53:07.458Z,3607
2023-02-19T18:03:07.472Z,3610
2023-02-19T18:13:07.434Z,3607
2023-02-19T18:23:07.414Z,3610
2023-02-19T18:33:07.408Z,3610
2023-02-19T18:43:07.406Z,3610
2023-02-19T18:53:07.362Z,3610
2023-02-19T19:03:07.781Z,3605
2023-02-19T19:13:07.368Z,3605
2023-02-19T19:23:07.355Z,3607
2023-02-19T19:33:07.322Z,3607
2023-02-19T19:43:07.743Z,3605
2023-02-19T19:53:07.300Z,3605
2023-02-19T20:03:07.286Z,3607
2023-02-19T20:13:07.306Z,3607
2023-02-19T20:23:07.257Z,3607
2023-02-19T20:33:07.258Z,3610
2023-02-19T20:43:07.242Z,3610
2023-02-19T20:53:07.656Z,3605
2023-02-19T21:03:07.290Z,3605
2023-02-19T21:13:07.222Z,3605
2023-02-19T21:23:07.209Z,3607
2023-02-19T21:33:07.174Z,3610
2023-02-19T21:43:07.180Z,3607
2023-02-19T21:53:07.156Z,3610
2023-02-19T22:03:07.187Z,3610
2023-02-19T22:13:07.126Z,3610
2023-02-19T22:23:07.527Z,3605
2023-02-19T22:33:07.166Z,3607
2023-02-19T22:43:07.084Z,3605
2023-02-19T22:53:07.102Z,3607
2023-02-19T23:03:07.474Z,3605
2023-02-19T23:13:08.973Z,3589
2023-02-19T23:23:07.052Z,3594
2023-02-19T23:33:07.045Z,3600
2023-02-19T23:43:07.020Z,3602
2023-02-19T23:53:07.035Z,3605
